Relevés horaires Bouveret (Suisse)


Relevés horaires à Bouveret - Lundi 02 Mars 2015
Heure UTC1 Température [°C] Vent [km/h] Hum. [%] Pres.4 [hPa] Visi. [Km] Nébu. [octa] Préc.5 [mm] Cond.
2m. Res. Ros. Dir.2 Vit. Moy. Raf.3
23:00 6.4 6.4 3.5 SSE 3.7 13.0 20.4 82 1025.1(2.6/3h) -- -- -- --
22:00 7.9 4.9 3.3 NNO 18.5 24.1 33.3 73 1024.3(3.2/3h) -- -- -- --
21:00 8.1 4.3 3.6 NNO 27.8 33.3 50.0 73 1023.2(3.2/3h) -- -- -- --
20:00 9.3 6.5 1.2 ONO 20.4 24.1 48.2 57 1021.9(3.2/3h) -- -- -- --
19:00 9.7 6.6 0.9 ONO 24.1 33.3 50.0 54 1020.6(2.4/3h) -- -- -- --
18:00 10.0 6.9 1.2 ONO 25.9 57.4 74.1 54 1019.5(1.9/3h) -- -- -- --
17:00 10.4 7.1 0.7 ONO 29.6 29.6 50.0 51 1018.4(1.1/3h) -- -- -- --
16:00 8.6 8 3.2 ESE 5.6 18.5 33.3 69 1018.3(1.1/3h) -- -- -- --
15:00 8.4 4.8 3.7 NO 25.9 57.4 74.1 72 1017.8(2.0/3h) -- -- -- --
14:00 9.2 6.7 3.4 N 16.7 29.6 48.2 67 1017.4(2.6/3h) -- -- -- --
13:00 6.8 2.1 4.6 N 33.3 57.4 74.1 86 1017.4(1.7/3h) -- -- -- --
12:00 8.7 3.5 5.2 NO 53.7 53.7 68.5 79 1015.6(1.1/3h) -- -- -- --
11:00 11.8 8.6 2.7 ONO 35.2 35.2 59.3 54 1014.3(0.4/3h) -- -- -- --
10:00 10.1 9.7 5.9 ESE 5.6 29.6 53.7 75 1015.1(1.8/3h) -- -- -- --
09:00 10.7 8.6 4.6 NE 16.7 31.5 63.0 66 1014.2(2.8/3h) -- -- -- --
08:00 9.2 7.8 6.3 N 9.3 29.6 48.2 82 1014.3(2.3/3h) -- -- -- --
07:00 8.0 4.5 7.3 N 24.1 25.9 37.0 95 1013.6(1.5/3h) -- -- -- --
06:00 7.2 5.9 7.1 SE 7.4 24.1 44.4 99 1011.8(-0.1/3h) -- -- -- --
05:00 7.3 7.3 7.0 S 3.7 5.6 11.1 98 1012.2(-1.0/3h) -- -- -- --
04:00 7.6 7.6 7.0 ESE 1.9 14.8 20.4 96 1012.1(-2.1/3h) -- -- -- --
03:00 8.4 6.9 6.8 SO 9.3 24.1 44.4 90 1011.7(-2.1/3h) -- -- -- --
02:00 6.8 5 6.2 ESE 9.3 9.3 22.2 96 1013.4(-0.4/3h) -- -- -- --
01:00 6.7 6.7 6.2 E 3.7 16.7 22.2 97 1014.4(0.0/3h) -- -- -- --
00:00 7.1 3.7 6.5 O 20.4 27.8 37.0 96 1014.1(-0.2/3h) -- -- -- --

1 Coordinated Universal Time. Actuellement il est 20:00 locale et 18:00 UTC.

2 Le vent souffle depuis la direction indiquée vers la direction oposée.

3 Les rafales max. sont disponible 40 min après l'heure du relevé.

4 Pour les stations d'altitude (plus de 600m) le géopotentiel du niveau le plus proche de la pression obligatoire est indiqué.

5 Les stations disposant d'un diffuseur peuvent indiquer "trace". Cela signifie que des précipitations ont touchés le sol mais que la quantité est inférieure à 0.1 mm.

Copyright

Les données affichées sur cette page sont la propriété exclusive de Météo Suisse.

Récapitulatif de la journée
Température [°C] Vent [km/h] Ensoleillement4 [h] Precipitations totale5 [mm] Pression [Hpa]
Min1 Max.2 Moy.3 Max. Min Max.
6.0 12.5 29.4 74.1 0 h 0 min 0 1011.7 1025.1

1 Température minimale relevée entre 18:00 UTC la veille et 18:00 UTC le jour donné.

2 Température maximale relevée entre 06:00 UTC le jour donné et 06:00 UTC le lendemain.

3 Vent moyen de la journée basé sur les relevés horaires.

4 Ensoleillement en heures relevé entre 06:00 UTC la veille et 06:00 UTC le jour donné.

5 Précipitations totales tombées entre 06:00 UTC la jour donné et 06:00 UTC le lendemain.

Graphiques horaires